Time;durP1;ratioP1;P1;durP2;ratioP2;P2;SDS_P1;SDS_P2;PMS_P1;PMS_P2;Temp;Humidity;BMP_temperature;BMP_pressure;BME280_temperature;BME280_humidity;BME280_pressure;Samples;Min_cycle;Max_cycle;Signal;HPM_P1;HPM_P2
2021/06/15 00:00:41;;;;;;;3.20;2.60;;;;;;;;;;5055412;28;20190;-46
2021/06/15 00:03:07;;;;;;;3.08;2.83;;;;;;;;;;5055542;28;20178;-46
2021/06/15 00:05:33;;;;;;;3.05;2.60;;;;;;;;;;5053361;28;20190;-46
2021/06/15 00:07:59;;;;;;;3.55;2.70;;;;;;;;;;5036067;28;20449;-46
2021/06/15 00:10:25;;;;;;;4.22;2.78;;;;;;;;;;5035133;28;20261;-46
2021/06/15 00:12:52;;;;;;;4.75;2.90;;;;;;;;;;5041422;28;20520;-46
2021/06/15 00:15:19;;;;;;;2.85;2.55;;;;;;;;;;5054786;28;20175;-46
2021/06/15 00:17:45;;;;;;;4.22;2.50;;;;;;;;;;5045213;28;21565;-46
2021/06/15 00:20:12;;;;;;;3.40;2.67;;;;;;;;;;5052958;28;20178;-46
2021/06/15 00:22:38;;;;;;;2.55;2.28;;;;;;;;;;5055011;28;20191;-46
2021/06/15 00:25:05;;;;;;;2.83;2.47;;;;;;;;;;5055011;28;20174;-46
2021/06/15 00:27:31;;;;;;;3.88;2.92;;;;;;;;;;5055577;28;20226;-46
2021/06/15 00:29:57;;;;;;;4.57;2.78;;;;;;;;;;5055609;28;20171;-46
2021/06/15 00:32:24;;;;;;;4.18;3.08;;;;;;;;;;5054572;28;20193;-46
2021/06/15 00:34:50;;;;;;;3.58;2.80;;;;;;;;;;5054082;28;20232;-46
2021/06/15 00:37:16;;;;;;;2.72;2.50;;;;;;;;;;5055055;28;20266;-46
2021/06/15 00:39:42;;;;;;;5.00;2.67;;;;;;;;;;5055081;28;20209;-46
2021/06/15 00:42:08;;;;;;;3.00;2.25;;;;;;;;;;5053803;28;20266;-46
2021/06/15 00:44:35;;;;;;;5.63;2.67;;;;;;;;;;5055120;28;20602;-46
2021/06/15 00:47:01;;;;;;;2.72;2.50;;;;;;;;;;5053140;28;20179;-46
2021/06/15 00:49:31;;;;;;;3.38;2.63;;;;;;;;;;5054437;28;20189;-46
2021/06/15 00:51:57;;;;;;;3.38;2.88;;;;;;;;;;5038778;28;20218;-46
2021/06/15 00:54:24;;;;;;;4.28;2.75;;;;;;;;;;5038904;28;20186;-46
2021/06/15 00:56:50;;;;;;;2.63;2.42;;;;;;;;;;5055065;28;20167;-46
2021/06/15 00:59:16;;;;;;;2.70;2.50;;;;;;;;;;5055081;28;20199;-46
2021/06/15 01:01:42;;;;;;;3.20;2.60;;;;;;;;;;5053626;28;20478;-46
2021/06/15 01:04:08;;;;;;;2.72;2.20;;;;;;;;;;5052748;28;20309;-46
2021/06/15 01:06:53;;;;;;;2.63;2.20;;;;;;;;;;5054647;28;20167;-46
2021/06/15 01:09:26;;;;;;;2.85;2.60;;;;;;;;;;5054896;28;20163;-46
2021/06/15 01:12:11;;;;;;;2.95;2.50;;;;;;;;;;5052621;28;20477;-46
2021/06/15 01:14:46;;;;;;;5.40;2.67;;;;;;;;;;5054211;28;20177;-46
2021/06/15 01:17:18;;;;;;;3.90;2.20;;;;;;;;;;5054414;28;20190;-46
2021/06/15 01:19:53;;;;;;;2.67;2.45;;;;;;;;;;5054316;28;20206;-46
2021/06/15 01:22:37;;;;;;;3.17;2.47;;;;;;;;;;5048796;28;20182;-46
2021/06/15 01:25:24;;;;;;;2.40;2.20;;;;;;;;;;5054343;28;20253;-46
2021/06/15 01:27:51;;;;;;;3.00;2.35;;;;;;;;;;5054750;28;20175;-46
2021/06/15 01:30:18;;;;;;;3.88;2.33;;;;;;;;;;5054157;28;20183;-46
2021/06/15 01:32:50;;;;;;;2.55;2.35;;;;;;;;;;5043193;28;20175;-46
2021/06/15 01:35:16;;;;;;;3.13;2.30;;;;;;;;;;5052368;28;20207;-46
2021/06/15 01:37:44;;;;;;;2.95;2.50;;;;;;;;;;5054289;28;20177;-46
2021/06/15 01:40:14;;;;;;;3.53;2.45;;;;;;;;;;5038877;28;20313;-46
2021/06/15 01:42:43;;;;;;;3.05;2.70;;;;;;;;;;5043287;28;20175;-46
2021/06/15 01:45:14;;;;;;;2.47;2.13;;;;;;;;;;5054302;28;20199;-46
2021/06/15 01:47:43;;;;;;;2.40;2.20;;;;;;;;;;5054598;28;20440;-46
2021/06/15 01:50:11;;;;;;;2.97;1.98;;;;;;;;;;5053760;28;20462;-46
2021/06/15 01:52:38;;;;;;;3.80;2.30;;;;;;;;;;5053771;28;20182;-46
2021/06/15 01:55:06;;;;;;;2.10;1.90;;;;;;;;;;5052562;28;20194;-46
2021/06/15 01:57:32;;;;;;;3.03;2.10;;;;;;;;;;5054187;28;20621;-46
2021/06/15 01:59:59;;;;;;;2.53;2.17;;;;;;;;;;5036768;28;20550;-46
2021/06/15 02:02:26;;;;;;;2.30;2.05;;;;;;;;;;5042834;28;20195;-46
2021/06/15 02:04:53;;;;;;;2.25;2.15;;;;;;;;;;5053645;28;20221;-46
2021/06/15 02:07:24;;;;;;;2.35;2.15;;;;;;;;;;5046989;28;20262;-46
2021/06/15 02:09:52;;;;;;;3.95;2.10;;;;;;;;;;5054097;28;20179;-46
2021/06/15 02:12:20;;;;;;;2.83;2.30;;;;;;;;;;5053316;28;20501;-46
2021/06/15 02:14:46;;;;;;;3.65;2.30;;;;;;;;;;5054189;28;20191;-46
2021/06/15 02:17:14;;;;;;;2.10;1.90;;;;;;;;;;5048119;28;20180;-46
2021/06/15 02:19:42;;;;;;;2.53;2.33;;;;;;;;;;5056282;28;20265;-46
2021/06/15 02:22:10;;;;;;;3.10;2.03;;;;;;;;;;5056875;28;20285;-45
2021/06/15 02:24:46;;;;;;;2.75;1.95;;;;;;;;;;5057905;28;20221;-46
2021/06/15 02:27:15;;;;;;;3.05;2.20;;;;;;;;;;5057853;28;20411;-46
2021/06/15 02:29:42;;;;;;;3.85;2.28;;;;;;;;;;5042599;28;20183;-46
2021/06/15 02:32:09;;;;;;;2.00;1.80;;;;;;;;;;5043269;28;20191;-46
2021/06/15 02:34:37;;;;;;;2.47;2.25;;;;;;;;;;5057336;28;20194;-46
2021/06/15 02:37:04;;;;;;;2.58;2.20;;;;;;;;;;5057485;28;20179;-46
2021/06/15 02:39:33;;;;;;;3.05;2.58;;;;;;;;;;5054533;28;20204;-46
2021/06/15 02:42:00;;;;;;;2.40;2.20;;;;;;;;;;5038834;28;20673;-46
2021/06/15 02:44:29;;;;;;;4.25;2.20;;;;;;;;;;5057347;28;20547;-46
2021/06/15 02:46:56;;;;;;;2.72;2.08;;;;;;;;;;5056378;28;20271;-45
2021/06/15 02:49:24;;;;;;;1.95;1.80;;;;;;;;;;5056890;28;20179;-45
2021/06/15 02:52:10;;;;;;;2.25;2.05;;;;;;;;;;5043096;28;20563;-46
2021/06/15 02:54:40;;;;;;;8.57;2.80;;;;;;;;;;5041740;28;20184;-46
2021/06/15 02:57:07;;;;;;;2.67;2.47;;;;;;;;;;5037215;28;20191;-46
2021/06/15 02:59:33;;;;;;;3.42;2.45;;;;;;;;;;5045850;28;20202;-45
2021/06/15 03:01:59;;;;;;;2.47;2.28;;;;;;;;;;5047592;28;20214;-45
2021/06/15 03:04:25;;;;;;;3.92;2.53;;;;;;;;;;5056762;28;20245;-46
2021/06/15 03:06:51;;;;;;;2.63;2.15;;;;;;;;;;5050677;28;20470;-46
2021/06/15 03:09:18;;;;;;;3.42;2.30;;;;;;;;;;5038365;28;20167;-46
2021/06/15 03:11:50;;;;;;;4.47;2.70;;;;;;;;;;5055994;28;20189;-45
2021/06/15 03:14:22;;;;;;;4.65;2.58;;;;;;;;;;5056803;28;20183;-46
2021/06/15 03:16:48;;;;;;;2.88;2.30;;;;;;;;;;5048561;28;20425;-45
2021/06/15 03:19:22;;;;;;;2.40;2.20;;;;;;;;;;5046378;28;20206;-45
2021/06/15 03:21:50;;;;;;;3.53;2.40;;;;;;;;;;5048973;28;20245;-45
2021/06/15 03:24:24;;;;;;;2.55;2.35;;;;;;;;;;5056598;28;20245;-45
2021/06/15 03:26:53;;;;;;;2.13;1.92;;;;;;;;;;5055857;28;20168;-46
2021/06/15 03:29:25;;;;;;;2.70;2.25;;;;;;;;;;5056260;28;20179;-45
2021/06/15 03:31:52;;;;;;;2.40;2.20;;;;;;;;;;5055967;28;20187;-45
2021/06/15 03:34:23;;;;;;;4.72;2.45;;;;;;;;;;5052660;28;20183;-45
2021/06/15 03:36:50;;;;;;;3.38;2.60;;;;;;;;;;5050545;28;20273;-45
2021/06/15 03:39:18;;;;;;;3.85;2.22;;;;;;;;;;5055694;28;20230;-46
2021/06/15 03:41:44;;;;;;;2.22;2.03;;;;;;;;;;5055845;28;20202;-45
2021/06/15 03:44:10;;;;;;;2.30;2.10;;;;;;;;;;5056222;28;20224;-45
2021/06/15 03:46:38;;;;;;;2.85;2.30;;;;;;;;;;5056136;28;20225;-46
2021/06/15 03:49:07;;;;;;;2.40;2.20;;;;;;;;;;5055638;28;20428;-45
2021/06/15 03:51:35;;;;;;;2.30;2.10;;;;;;;;;;5055353;28;20494;-45
2021/06/15 03:54:10;;;;;;;2.97;2.67;;;;;;;;;;5050390;28;20233;-45
2021/06/15 03:56:43;;;;;;;2.70;2.50;;;;;;;;;;5055530;28;20273;-45
2021/06/15 03:59:11;;;;;;;2.88;2.22;;;;;;;;;;5055641;28;20202;-46
2021/06/15 04:01:39;;;;;;;2.50;2.30;;;;;;;;;;5043525;28;20207;-45
2021/06/15 04:04:06;;;;;;;2.95;2.70;;;;;;;;;;5055357;28;20258;-45
2021/06/15 04:06:34;;;;;;;4.30;2.30;;;;;;;;;;5054734;28;20178;-46
2021/06/15 04:09:04;;;;;;;3.55;2.63;;;;;;;;;;5056045;28;20176;-45
2021/06/15 04:11:31;;;;;;;2.60;2.40;;;;;;;;;;5055076;28;20190;-45
2021/06/15 04:13:57;;;;;;;3.00;2.65;;;;;;;;;;5056092;28;20585;-45
2021/06/15 04:16:24;;;;;;;4.43;2.53;;;;;;;;;;5052764;28;20179;-45
2021/06/15 04:18:50;;;;;;;3.15;2.47;;;;;;;;;;5041438;28;20625;-45
2021/06/15 04:21:17;;;;;;;2.20;2.00;;;;;;;;;;5054909;28;20185;-45
2021/06/15 04:23:53;;;;;;;2.70;2.13;;;;;;;;;;5055391;28;20225;-45
2021/06/15 04:26:19;;;;;;;2.72;2.40;;;;;;;;;;5055211;28;20175;-45
2021/06/15 04:28:45;;;;;;;4.00;2.70;;;;;;;;;;5055136;28;20202;-45
2021/06/15 04:31:12;;;;;;;2.75;2.30;;;;;;;;;;5053813;28;20184;-45
2021/06/15 04:33:38;;;;;;;4.20;2.53;;;;;;;;;;5054693;28;20179;-45
2021/06/15 04:36:06;;;;;;;4.07;2.72;;;;;;;;;;5055218;28;20559;-45
2021/06/15 04:38:32;;;;;;;9.38;2.70;;;;;;;;;;5055181;28;20195;-45
2021/06/15 04:41:00;;;;;;;7.07;2.65;;;;;;;;;;5040137;28;20514;-45
2021/06/15 04:43:32;;;;;;;6.57;3.00;;;;;;;;;;5053239;28;20478;-45
2021/06/15 04:46:08;;;;;;;6.65;2.70;;;;;;;;;;5055051;28;20179;-45
2021/06/15 04:48:35;;;;;;;5.45;2.88;;;;;;;;;;5054949;28;20201;-45
2021/06/15 04:51:02;;;;;;;4.38;2.63;;;;;;;;;;5046478;28;20195;-45
2021/06/15 04:53:32;;;;;;;5.22;2.70;;;;;;;;;;5051837;28;20201;-45
2021/06/15 04:56:02;;;;;;;6.65;3.22;;;;;;;;;;5054410;28;20265;-46
2021/06/15 04:58:31;;;;;;;4.82;2.63;;;;;;;;;;5053143;28;20594;-45
2021/06/15 05:00:59;;;;;;;3.38;2.53;;;;;;;;;;5047562;28;20558;-45
2021/06/15 05:03:26;;;;;;;4.97;2.63;;;;;;;;;;5051982;28;20214;-45
2021/06/15 05:05:52;;;;;;;3.13;2.58;;;;;;;;;;5050065;28;20847;-45
2021/06/15 05:08:21;;;;;;;3.30;2.42;;;;;;;;;;5041161;28;20183;-45
2021/06/15 05:10:47;;;;;;;3.90;2.22;;;;;;;;;;5040621;28;20197;-45
2021/06/15 05:13:14;;;;;;;3.65;2.53;;;;;;;;;;5051699;28;20176;-46
2021/06/15 05:15:44;;;;;;;4.95;2.63;;;;;;;;;;5053011;28;20190;-45
2021/06/15 05:18:10;;;;;;;3.90;2.42;;;;;;;;;;5044481;28;20176;-45
2021/06/15 05:20:37;;;;;;;3.85;2.80;;;;;;;;;;5046018;28;20573;-46
2021/06/15 05:23:03;;;;;;;3.45;2.80;;;;;;;;;;5050743;28;20174;-45
2021/06/15 05:25:29;;;;;;;4.43;2.22;;;;;;;;;;5045712;28;20229;-45
2021/06/15 05:27:55;;;;;;;6.57;2.60;;;;;;;;;;5051296;28;20608;-45
2021/06/15 05:30:21;;;;;;;5.10;2.85;;;;;;;;;;5052672;28;20207;-45
2021/06/15 05:32:48;;;;;;;5.80;2.85;;;;;;;;;;5052237;28;20171;-46
2021/06/15 05:35:14;;;;;;;4.43;2.60;;;;;;;;;;5048634;28;20179;-45
2021/06/15 05:37:41;;;;;;;11.90;3.58;;;;;;;;;;5034383;28;20174;-46
2021/06/15 05:40:07;;;;;;;22.13;6.30;;;;;;;;;;5037271;28;20206;-46
2021/06/15 05:42:33;;;;;;;94.75;22.05;;;;;;;;;;5041608;28;20254;-46
2021/06/15 05:45:00;;;;;;;156.90;31.17;;;;;;;;;;5050784;28;20270;-46
2021/06/15 05:47:27;;;;;;;117.75;26.75;;;;;;;;;;5036783;28;20616;-46
2021/06/15 05:49:53;;;;;;;118.57;27.48;;;;;;;;;;5050576;28;20175;-46
2021/06/15 05:52:19;;;;;;;99.40;24.50;;;;;;;;;;5057556;28;20282;-45
2021/06/15 05:54:45;;;;;;;100.18;21.85;;;;;;;;;;5058193;28;20171;-46
2021/06/15 05:57:11;;;;;;;96.32;22.73;;;;;;;;;;5058267;28;20543;-47
2021/06/15 05:59:37;;;;;;;86.63;20.60;;;;;;;;;;5058141;28;20704;-45
2021/06/15 06:02:04;;;;;;;85.57;20.25;;;;;;;;;;5049260;28;20183;-46
2021/06/15 06:08:04;;;;;;;72.10;19.85;;;;;;;;;;5057490;28;20182;-45
2021/06/15 06:10:07;;;;;;;71.18;19.10;;;;;;;;;;5050466;28;20195;-46
2021/06/15 06:12:33;;;;;;;67.22;18.85;;;;;;;;;;5048277;28;20172;-46
2021/06/15 06:15:00;;;;;;;53.97;16.83;;;;;;;;;;5057710;28;20465;-46
2021/06/15 06:17:26;;;;;;;54.58;15.93;;;;;;;;;;5057570;28;20190;-46
2021/06/15 06:19:52;;;;;;;55.13;15.02;;;;;;;;;;5057639;28;20211;-46
2021/06/15 06:22:19;;;;;;;42.20;14.50;;;;;;;;;;5056931;28;20190;-46
2021/06/15 06:24:46;;;;;;;42.83;13.43;;;;;;;;;;5058022;28;20171;-46
2021/06/15 06:27:12;;;;;;;42.33;12.40;;;;;;;;;;5057641;28;20183;-46
2021/06/15 06:29:38;;;;;;;33.92;11.50;;;;;;;;;;5057447;28;20206;-46
2021/06/15 06:32:05;;;;;;;34.35;11.00;;;;;;;;;;5056385;28;20179;-46
2021/06/15 06:34:31;;;;;;;31.10;9.90;;;;;;;;;;5057185;28;20185;-46
2021/06/15 06:36:57;;;;;;;33.05;10.68;;;;;;;;;;5057722;28;20187;-47
2021/06/15 06:39:23;;;;;;;34.33;10.10;;;;;;;;;;5057029;28;20564;-46
2021/06/15 06:41:49;;;;;;;28.92;9.18;;;;;;;;;;5057140;28;20266;-46
2021/06/15 06:44:15;;;;;;;26.98;9.23;;;;;;;;;;5057390;28;20230;-47
2021/06/15 06:46:41;;;;;;;26.30;8.48;;;;;;;;;;5057519;28;20436;-46
2021/06/15 06:49:07;;;;;;;20.63;8.07;;;;;;;;;;5057061;28;20202;-46
2021/06/15 06:51:34;;;;;;;22.55;7.85;;;;;;;;;;5045327;28;20196;-46
2021/06/15 06:54:00;;;;;;;21.05;7.20;;;;;;;;;;5054059;28;20482;-46
2021/06/15 06:56:27;;;;;;;17.30;6.78;;;;;;;;;;5057261;28;20167;-46
2021/06/15 06:58:54;;;;;;;13.77;5.78;;;;;;;;;;5057077;28;20470;-46
2021/06/15 07:01:21;;;;;;;15.00;5.63;;;;;;;;;;5045615;28;20263;-46
2021/06/15 07:03:48;;;;;;;10.13;5.07;;;;;;;;;;5051705;28;20258;-46
2021/06/15 07:06:14;;;;;;;10.50;5.38;;;;;;;;;;5056857;28;20258;-47
2021/06/15 07:08:40;;;;;;;12.07;4.97;;;;;;;;;;5057310;28;20496;-46
2021/06/15 07:11:06;;;;;;;9.45;4.03;;;;;;;;;;5038577;28;20204;-46
2021/06/15 07:13:32;;;;;;;10.40;3.90;;;;;;;;;;5049137;28;20266;-47
2021/06/15 07:15:58;;;;;;;9.07;4.82;;;;;;;;;;5054705;28;20250;-46
2021/06/15 07:18:24;;;;;;;7.80;3.85;;;;;;;;;;5038998;28;20200;-46
2021/06/15 07:20:50;;;;;;;7.50;3.90;;;;;;;;;;5049816;28;20164;-46
2021/06/15 07:23:16;;;;;;;7.15;3.63;;;;;;;;;;5047244;28;20207;-46
2021/06/15 07:25:43;;;;;;;6.18;3.70;;;;;;;;;;5056175;28;20179;-46
2021/06/15 07:28:08;;;;;;;6.88;3.70;;;;;;;;;;5056711;28;20201;-46
2021/06/15 07:30:35;;;;;;;4.28;3.33;;;;;;;;;;5055886;28;20175;-46
2021/06/15 07:33:01;;;;;;;7.43;3.90;;;;;;;;;;5056550;28;20523;-47
2021/06/15 07:35:27;;;;;;;6.63;3.58;;;;;;;;;;5053740;28;20194;-47
2021/06/15 07:37:54;;;;;;;5.57;3.38;;;;;;;;;;5036414;28;20305;-46
2021/06/15 07:40:24;;;;;;;7.55;3.80;;;;;;;;;;5039141;28;20200;-47
2021/06/15 07:42:56;;;;;;;5.80;3.40;;;;;;;;;;5045955;28;20175;-46
2021/06/15 07:45:23;;;;;;;7.47;3.10;;;;;;;;;;5055983;28;20167;-46
2021/06/15 07:47:49;;;;;;;4.85;2.78;;;;;;;;;;5055931;28;20195;-46
2021/06/15 07:50:15;;;;;;;5.15;3.00;;;;;;;;;;5055183;28;20198;-46
2021/06/15 07:52:41;;;;;;;4.78;2.72;;;;;;;;;;5054516;28;20186;-46
2021/06/15 07:55:08;;;;;;;5.75;2.60;;;;;;;;;;5047083;28;20199;-46
2021/06/15 07:57:34;;;;;;;4.45;2.42;;;;;;;;;;5052780;28;20258;-46
2021/06/15 08:00:00;;;;;;;5.93;2.80;;;;;;;;;;5054042;28;20294;-46
2021/06/15 08:02:28;;;;;;;4.93;3.15;;;;;;;;;;5045445;28;20179;-46
2021/06/15 08:04:54;;;;;;;4.47;2.63;;;;;;;;;;5054294;28;20170;-46
2021/06/15 08:07:20;;;;;;;7.00;2.60;;;;;;;;;;5055683;28;20177;-47
2021/06/15 08:09:46;;;;;;;6.20;2.92;;;;;;;;;;5055559;28;20175;-47
2021/06/15 08:12:12;;;;;;;5.82;2.88;;;;;;;;;;5054454;28;20497;-46
2021/06/15 08:14:38;;;;;;;3.53;2.42;;;;;;;;;;5054822;28;20190;-47
2021/06/15 08:17:04;;;;;;;5.05;2.40;;;;;;;;;;5060648;28;20209;-47
2021/06/15 08:19:30;;;;;;;4.93;2.58;;;;;;;;;;5061175;28;20204;-46
2021/06/15 08:21:56;;;;;;;4.13;2.65;;;;;;;;;;5053130;28;20233;-46
2021/06/15 08:24:22;;;;;;;3.92;2.60;;;;;;;;;;5054456;28;20194;-46
2021/06/15 08:26:48;;;;;;;3.25;2.30;;;;;;;;;;5055646;28;20176;-46
2021/06/15 08:29:14;;;;;;;4.00;2.67;;;;;;;;;;5054466;28;20171;-47
2021/06/15 08:31:40;;;;;;;4.95;2.25;;;;;;;;;;5054974;28;20195;-47
2021/06/15 08:34:06;;;;;;;3.58;2.50;;;;;;;;;;5055304;28;20576;-46
2021/06/15 08:36:32;;;;;;;5.00;2.60;;;;;;;;;;5054928;28;20171;-46
2021/06/15 08:39:02;;;;;;;4.38;2.38;;;;;;;;;;5055230;28;20214;-46
2021/06/15 08:41:29;;;;;;;5.22;2.58;;;;;;;;;;5054639;28;20440;-46
2021/06/15 08:43:55;;;;;;;3.40;2.33;;;;;;;;;;5055277;28;20468;-46
2021/06/15 08:46:21;;;;;;;4.40;2.47;;;;;;;;;;5055177;28;20182;-46
2021/06/15 08:48:47;;;;;;;3.92;2.72;;;;;;;;;;5054990;28;20199;-47
2021/06/15 08:51:13;;;;;;;3.60;2.65;;;;;;;;;;5054019;28;20190;-46
2021/06/15 08:53:39;;;;;;;2.65;2.20;;;;;;;;;;5055047;28;20232;-46
2021/06/15 08:56:19;;;;;;;6.05;2.53;;;;;;;;;;5055442;28;20451;-46
2021/06/15 08:58:47;;;;;;;5.93;2.60;;;;;;;;;;5054984;28;20199;-47
2021/06/15 09:01:14;;;;;;;3.30;2.60;;;;;;;;;;5054295;28;20174;-46
2021/06/15 09:03:40;;;;;;;3.38;2.50;;;;;;;;;;5054666;28;20163;-47
2021/06/15 09:06:06;;;;;;;5.35;2.40;;;;;;;;;;5054668;28;20171;-46
2021/06/15 09:08:32;;;;;;;4.25;2.28;;;;;;;;;;5054889;28;20183;-47
2021/06/15 09:11:04;;;;;;;3.55;2.50;;;;;;;;;;5054346;28;20190;-44
2021/06/15 09:13:40;;;;;;;3.17;2.38;;;;;;;;;;5054663;28;20630;-44
2021/06/15 09:16:26;;;;;;;3.72;2.10;;;;;;;;;;5054410;28;20171;-44
2021/06/15 09:18:54;;;;;;;6.35;2.83;;;;;;;;;;5034589;28;20207;-44
2021/06/15 09:21:29;;;;;;;4.35;2.67;;;;;;;;;;5034289;28;20171;-44
2021/06/15 09:24:13;;;;;;;5.57;2.72;;;;;;;;;;5034074;28;20182;-44
2021/06/15 09:27:10;;;;;;;3.50;2.30;;;;;;;;;;5044673;28;20171;-44
2021/06/15 09:29:48;;;;;;;3.53;2.35;;;;;;;;;;5053733;28;20183;-45
2021/06/15 09:32:16;;;;;;;5.50;2.40;;;;;;;;;;5053470;28;20183;-44
2021/06/15 09:34:46;;;;;;;2.90;2.13;;;;;;;;;;5053675;28;20224;-44
2021/06/15 09:37:12;;;;;;;4.45;2.47;;;;;;;;;;5053864;28;20183;-44
2021/06/15 09:39:38;;;;;;;3.42;2.13;;;;;;;;;;5054219;28;20205;-44
2021/06/15 09:42:04;;;;;;;5.78;2.60;;;;;;;;;;5053310;28;20186;-44
2021/06/15 09:44:30;;;;;;;3.72;2.70;;;;;;;;;;5054610;28;20647;-44
2021/06/15 09:46:56;;;;;;;2.55;2.35;;;;;;;;;;5054051;28;20237;-44
2021/06/15 09:49:27;;;;;;;2.58;2.13;;;;;;;;;;5054318;28;20202;-44
2021/06/15 09:52:12;;;;;;;3.85;2.15;;;;;;;;;;5053728;28;20183;-44
2021/06/15 09:54:39;;;;;;;4.63;2.30;;;;;;;;;;5054032;28;20179;-44
2021/06/15 09:57:06;;;;;;;5.18;2.25;;;;;;;;;;5054167;28;20222;-44
2021/06/15 09:59:32;;;;;;;5.28;2.63;;;;;;;;;;5053835;28;20586;-44
2021/06/15 10:01:57;;;;;;;5.55;2.40;;;;;;;;;;5053369;28;20210;-44
2021/06/15 10:04:25;;;;;;;2.75;2.30;;;;;;;;;;5053908;28;20413;-44
2021/06/15 10:06:55;;;;;;;2.65;2.08;;;;;;;;;;5053915;28;20175;-45
2021/06/15 10:09:28;;;;;;;2.83;1.92;;;;;;;;;;5053583;28;20187;-44
2021/06/15 10:11:55;;;;;;;4.13;2.10;;;;;;;;;;5053542;28;20198;-44
2021/06/15 10:14:24;;;;;;;3.30;2.20;;;;;;;;;;5053709;28;20199;-44
2021/06/15 10:16:51;;;;;;;3.53;2.70;;;;;;;;;;5048800;28;20479;-44
2021/06/15 10:19:17;;;;;;;3.53;2.28;;;;;;;;;;5070984;28;20221;-44
2021/06/15 10:21:43;;;;;;;3.38;2.30;;;;;;;;;;5053364;28;20167;-44
2021/06/15 10:24:09;;;;;;;3.55;2.35;;;;;;;;;;5053855;28;20305;-44
2021/06/15 10:26:36;;;;;;;3.35;2.10;;;;;;;;;;5053985;28;20167;-44
2021/06/15 10:29:02;;;;;;;2.28;2.05;;;;;;;;;;5053468;28;20167;-44
2021/06/15 10:31:29;;;;;;;4.50;2.53;;;;;;;;;;5053438;28;20183;-44
2021/06/15 10:33:55;;;;;;;3.53;2.50;;;;;;;;;;5047339;28;20190;-44
2021/06/15 10:36:48;;;;;;;4.25;2.50;;;;;;;;;;5044166;28;20222;-44
2021/06/15 10:39:36;;;;;;;5.15;2.22;;;;;;;;;;5057802;28;20246;-44
2021/06/15 10:42:18;;;;;;;3.40;2.10;;;;;;;;;;5063994;28;20204;-44
2021/06/15 10:44:45;;;;;;;2.00;1.80;;;;;;;;;;5054124;28;20302;-44
2021/06/15 10:47:14;;;;;;;3.80;2.40;;;;;;;;;;5052633;28;20175;-44
2021/06/15 10:49:59;;;;;;;3.50;2.40;;;;;;;;;;5056453;28;20179;-44
2021/06/15 10:52:25;;;;;;;3.45;2.22;;;;;;;;;;5038959;28;20266;-44
2021/06/15 10:54:52;;;;;;;2.40;2.10;;;;;;;;;;5045841;28;20187;-44
2021/06/15 10:57:27;;;;;;;3.03;2.25;;;;;;;;;;5038671;28;20176;-44
2021/06/15 10:59:59;;;;;;;2.28;2.08;;;;;;;;;;5048526;28;20298;-44
2021/06/15 11:02:27;;;;;;;2.42;2.05;;;;;;;;;;5054032;28;20237;-44
2021/06/15 11:04:54;;;;;;;2.70;1.92;;;;;;;;;;5058864;28;20489;-44
2021/06/15 11:07:25;;;;;;;2.55;2.13;;;;;;;;;;5068637;28;20185;-44
2021/06/15 11:09:51;;;;;;;4.72;2.75;;;;;;;;;;5054330;28;20222;-44
2021/06/15 11:12:18;;;;;;;2.60;2.40;;;;;;;;;;5053104;28;20218;-44
2021/06/15 11:15:10;;;;;;;3.70;2.55;;;;;;;;;;5029956;28;20186;-44
2021/06/15 11:17:43;;;;;;;5.43;2.22;;;;;;;;;;5041148;28;20191;-44
2021/06/15 11:20:10;;;;;;;3.75;2.22;;;;;;;;;;5047102;28;20211;-44
2021/06/15 11:22:36;;;;;;;4.22;2.30;;;;;;;;;;5044065;28;20198;-45
2021/06/15 11:25:03;;;;;;;2.70;2.50;;;;;;;;;;5047610;28;20222;-44
2021/06/15 11:27:29;;;;;;;2.92;1.83;;;;;;;;;;5042077;28;21497;-44
2021/06/15 11:29:55;;;;;;;2.28;2.03;;;;;;;;;;5052676;28;20183;-44
2021/06/15 11:32:22;;;;;;;4.55;2.70;;;;;;;;;;5057298;28;20202;-47
2021/06/15 11:34:54;;;;;;;2.70;2.45;;;;;;;;;;5076221;28;20500;-47
2021/06/15 11:37:22;;;;;;;2.83;2.38;;;;;;;;;;5069649;28;20190;-47
2021/06/15 11:39:48;;;;;;;3.17;2.25;;;;;;;;;;5052527;28;20290;-47
2021/06/15 11:42:20;;;;;;;3.63;2.20;;;;;;;;;;5045075;28;20198;-47
2021/06/15 11:44:58;;;;;;;4.47;2.35;;;;;;;;;;5060200;28;20179;-47
2021/06/15 11:47:24;;;;;;;3.58;2.22;;;;;;;;;;5056740;28;20169;-47
2021/06/15 11:50:06;;;;;;;2.83;2.15;;;;;;;;;;5050311;28;20183;-47
2021/06/15 11:52:32;;;;;;;3.95;2.40;;;;;;;;;;5052480;28;20191;-44
2021/06/15 11:54:58;;;;;;;3.17;2.40;;;;;;;;;;5049993;28;20179;-44
2021/06/15 11:57:25;;;;;;;2.63;2.22;;;;;;;;;;5043619;28;20183;-44
2021/06/15 11:59:51;;;;;;;3.03;2.22;;;;;;;;;;5042386;28;20214;-44
2021/06/15 12:02:21;;;;;;;2.88;2.47;;;;;;;;;;5037114;28;20178;-45
2021/06/15 12:05:02;;;;;;;2.92;2.30;;;;;;;;;;5051166;28;20597;-44
2021/06/15 12:07:28;;;;;;;2.90;2.45;;;;;;;;;;5054364;28;20435;-44
2021/06/15 12:10:13;;;;;;;3.53;2.58;;;;;;;;;;5055173;28;20183;-44
2021/06/15 12:12:58;;;;;;;2.95;2.50;;;;;;;;;;5055145;28;20639;-44
2021/06/15 12:15:25;;;;;;;6.05;2.40;;;;;;;;;;5055472;28;20473;-44
2021/06/15 12:17:51;;;;;;;3.58;2.50;;;;;;;;;;5060380;28;20186;-45
2021/06/15 12:20:24;;;;;;;4.88;2.70;;;;;;;;;;5054893;28;20211;-44
2021/06/15 12:22:50;;;;;;;4.13;2.72;;;;;;;;;;5054982;28;20553;-44
2021/06/15 12:25:17;;;;;;;3.00;2.25;;;;;;;;;;5049165;28;20175;-45
2021/06/15 12:27:43;;;;;;;4.70;2.90;;;;;;;;;;5035759;28;20217;-44
2021/06/15 12:30:09;;;;;;;3.33;2.35;;;;;;;;;;5047508;28;20186;-44
2021/06/15 12:32:45;;;;;;;6.13;2.63;;;;;;;;;;5054394;28;20632;-44
2021/06/15 12:35:15;;;;;;;5.35;2.40;;;;;;;;;;5055459;28;20175;-45
2021/06/15 12:37:41;;;;;;;3.22;2.25;;;;;;;;;;5055039;28;20174;-45
2021/06/15 12:40:08;;;;;;;3.30;2.38;;;;;;;;;;5054870;28;20206;-44
2021/06/15 12:42:34;;;;;;;3.65;2.60;;;;;;;;;;5054142;28;20183;-44
2021/06/15 12:45:01;;;;;;;2.80;2.50;;;;;;;;;;5055053;28;20242;-44
2021/06/15 12:47:28;;;;;;;3.47;2.53;;;;;;;;;;5054509;28;20199;-45
2021/06/15 12:49:57;;;;;;;3.83;2.60;;;;;;;;;;5054775;28;20174;-45
2021/06/15 12:52:50;;;;;;;4.57;2.88;;;;;;;;;;5054653;28;20183;-45
2021/06/15 12:55:17;;;;;;;4.13;2.60;;;;;;;;;;5052518;28;20187;-45
2021/06/15 12:58:03;;;;;;;2.58;2.17;;;;;;;;;;5054383;28;20689;-44
2021/06/15 13:00:31;;;;;;;5.50;2.58;;;;;;;;;;5053732;28;20203;-44
2021/06/15 13:03:06;;;;;;;3.95;2.25;;;;;;;;;;5054473;28;20204;-44
2021/06/15 13:05:32;;;;;;;2.97;2.50;;;;;;;;;;5054454;28;20166;-44
2021/06/15 13:07:59;;;;;;;4.82;2.75;;;;;;;;;;5054726;28;20414;-45
2021/06/15 13:10:25;;;;;;;4.22;2.63;;;;;;;;;;5054256;28;20175;-45
2021/06/15 13:12:53;;;;;;;3.13;2.40;;;;;;;;;;5054585;28;20175;-45
2021/06/15 13:15:21;;;;;;;4.53;2.78;;;;;;;;;;5054503;28;20282;-45
2021/06/15 13:17:57;;;;;;;3.15;2.30;;;;;;;;;;5063263;28;20188;-45
2021/06/15 13:20:24;;;;;;;3.00;2.45;;;;;;;;;;5053332;28;20202;-45
2021/06/15 13:22:51;;;;;;;3.25;2.30;;;;;;;;;;5044260;28;20190;-44
2021/06/15 13:25:28;;;;;;;4.80;2.60;;;;;;;;;;5054459;28;20175;-45
2021/06/15 13:28:00;;;;;;;4.53;2.60;;;;;;;;;;5054999;28;20611;-43
2021/06/15 13:30:40;;;;;;;3.40;2.60;;;;;;;;;;5052711;28;20261;-44
2021/06/15 13:33:09;;;;;;;2.85;2.30;;;;;;;;;;5053233;28;20179;-48
2021/06/15 13:35:51;;;;;;;5.57;2.45;;;;;;;;;;5034657;28;20179;-48
2021/06/15 13:38:19;;;;;;;7.22;2.33;;;;;;;;;;5034481;28;20535;-48
2021/06/15 13:40:51;;;;;;;3.80;2.75;;;;;;;;;;5033800;28;20190;-45
2021/06/15 13:43:19;;;;;;;4.68;2.53;;;;;;;;;;5041577;28;20512;-45
2021/06/15 13:45:47;;;;;;;9.05;3.10;;;;;;;;;;5053845;28;20175;-45
2021/06/15 13:48:13;;;;;;;9.38;2.97;;;;;;;;;;5055064;28;20222;-45
2021/06/15 13:50:40;;;;;;;5.07;2.78;;;;;;;;;;5055995;28;20187;-46
2021/06/15 13:53:07;;;;;;;7.75;3.05;;;;;;;;;;5056455;28;20160;-45
2021/06/15 13:55:33;;;;;;;4.22;3.00;;;;;;;;;;5056489;28;20174;-45
2021/06/15 13:58:03;;;;;;;4.97;2.78;;;;;;;;;;5056625;28;20164;-45
2021/06/15 14:00:29;;;;;;;3.92;2.70;;;;;;;;;;5056095;28;20195;-46
2021/06/15 14:02:56;;;;;;;6.43;2.75;;;;;;;;;;5056254;28;20535;-45
2021/06/15 14:05:22;;;;;;;5.95;3.08;;;;;;;;;;5056208;28;20164;-45
2021/06/15 14:07:49;;;;;;;3.17;2.88;;;;;;;;;;5056192;28;20186;-45
2021/06/15 14:10:16;;;;;;;2.85;2.40;;;;;;;;;;5057389;28;20172;-45
2021/06/15 14:12:47;;;;;;;3.80;2.90;;;;;;;;;;5059986;28;20171;-45
2021/06/15 14:15:14;;;;;;;5.63;2.75;;;;;;;;;;5060000;28;20171;-45
2021/06/15 14:17:40;;;;;;;4.32;3.15;;;;;;;;;;5059959;28;20179;-45
2021/06/15 14:20:09;;;;;;;5.20;2.90;;;;;;;;;;5059772;28;20232;-45
2021/06/15 14:22:35;;;;;;;5.00;2.80;;;;;;;;;;5059440;28;20242;-45
2021/06/15 14:25:01;;;;;;;5.45;3.10;;;;;;;;;;5059820;28;20178;-45
2021/06/15 14:27:28;;;;;;;3.55;2.92;;;;;;;;;;5059731;28;20527;-46
2021/06/15 14:29:53;;;;;;;3.42;3.03;;;;;;;;;;5059751;28;20446;-45
2021/06/15 14:32:19;;;;;;;5.07;3.35;;;;;;;;;;5059448;28;20176;-45
2021/06/15 14:34:46;;;;;;;7.15;3.20;;;;;;;;;;5059546;28;20171;-45
2021/06/15 14:37:12;;;;;;;3.85;3.03;;;;;;;;;;5059546;28;20467;-45
2021/06/15 14:39:38;;;;;;;5.20;3.35;;;;;;;;;;5059450;28;20195;-45
2021/06/15 14:42:07;;;;;;;5.13;3.03;;;;;;;;;;5059118;28;20163;-45
2021/06/15 14:44:52;;;;;;;4.07;3.33;;;;;;;;;;5059103;28;20163;-48
2021/06/15 14:47:18;;;;;;;8.00;3.25;;;;;;;;;;5048679;28;20262;-48
2021/06/15 14:49:44;;;;;;;7.43;3.13;;;;;;;;;;5043368;28;20266;-48
2021/06/15 14:52:10;;;;;;;8.48;3.75;;;;;;;;;;5047056;28;20211;-48